Terminal Aerodrome Forecast
Issued by NWS Louisville, KY

Home | Current Version | Previous Version | Text Only | Print | Product List | Glossary On
Versions: 1 2 3 4 5 6 7 8 9 10 11 12 13
000
FTUS43 KLMK 140520
TAFSDF
TAF
KSDF 140520Z 1406/1512 29017G29KT P6SM BKN035
      TEMPO 1406/1409 BKN025
     FM140900 30012KT P6SM BKN040
     FM141300 34009KT P6SM BKN200
     FM150200 36005KT P6SM BKN100=

USA.gov is the U.S. government's official web portal to all federal, state and local government web resources and services.